Time;durP1;ratioP1;P1;durP2;ratioP2;P2;SDS_P1;SDS_P2;PMS_P1;PMS_P2;Temp;Humidity;BMP_temperature;BMP_pressure;BME280_temperature;BME280_humidity;BME280_pressure;Samples;Min_cycle;Max_cycle;Signal;HPM_P1;HPM_P2
2022/07/27 00:01:34;;;;;;;3.83;3.50;;;;;;;16.67;100.00;96942.28;4995745;28;21235;-65
2022/07/27 00:04:02;;;;;;;3.77;3.50;;;;;;;16.56;100.00;96944.69;4978192;28;20237;-67
2022/07/27 00:06:31;;;;;;;3.77;3.37;;;;;;;16.42;100.00;96938.72;4979907;28;20601;-67
2022/07/27 00:08:59;;;;;;;3.43;3.23;;;;;;;16.37;100.00;96925.22;4999120;28;20438;-67
2022/07/27 00:11:27;;;;;;;3.73;3.53;;;;;;;16.22;100.00;96930.19;5000926;28;20219;-66
2022/07/27 00:13:55;;;;;;;3.57;3.37;;;;;;;16.27;100.00;96924.97;4949756;28;20669;-67
2022/07/27 00:16:24;;;;;;;3.90;3.43;;;;;;;16.08;100.00;96918.84;4997624;28;20256;-67
2022/07/27 00:18:53;;;;;;;5.10;3.20;;;;;;;16.04;100.00;96913.13;4973284;28;20763;-67
2022/07/27 00:21:22;;;;;;;3.70;3.40;;;;;;;16.10;100.00;96914.91;4943296;28;21014;-66
2022/07/27 00:23:50;;;;;;;4.47;4.17;;;;;;;16.01;100.00;96913.56;4997425;28;20692;-68
2022/07/27 00:26:18;;;;;;;4.40;3.80;;;;;;;15.79;100.00;96916.72;4999266;28;20306;-67
2022/07/27 00:28:47;;;;;;;4.07;3.67;;;;;;;15.63;100.00;96913.59;4952135;28;20287;-68
2022/07/27 00:31:15;;;;;;;4.00;3.70;;;;;;;15.88;100.00;96915.38;4942604;28;20629;-66
2022/07/27 00:33:43;;;;;;;3.37;3.17;;;;;;;15.99;100.00;96908.47;4969840;28;23030;-66
2022/07/27 00:36:13;;;;;;;5.87;4.07;;;;;;;15.91;100.00;96914.13;4998462;28;20527;-66
2022/07/27 00:38:41;;;;;;;4.83;4.37;;;;;;;16.00;100.00;96906.59;4970417;28;20945;-67
2022/07/27 00:41:10;;;;;;;4.77;3.87;;;;;;;15.99;100.00;96903.13;5000629;28;20220;-65
2022/07/27 00:43:54;;;;;;;4.67;4.27;;;;;;;15.96;100.00;96911.59;4994323;28;20263;-68
2022/07/27 00:46:23;;;;;;;4.30;3.90;;;;;;;15.94;100.00;96907.50;4941152;28;20271;-67
2022/07/27 00:48:52;;;;;;;4.50;4.10;;;;;;;15.87;100.00;96910.22;4994244;28;20212;-66
2022/07/27 00:51:22;;;;;;;4.00;3.70;;;;;;;15.77;100.00;96908.91;4996156;28;20306;-66
2022/07/27 00:53:52;;;;;;;4.10;3.80;;;;;;;15.67;100.00;96903.28;4994332;28;20717;-66
2022/07/27 00:56:21;;;;;;;4.63;4.37;;;;;;;15.61;100.00;96898.84;4973268;28;20221;-67
2022/07/27 00:58:51;;;;;;;4.97;4.47;;;;;;;15.56;100.00;96904.03;4996451;28;20289;-66
2022/07/27 01:01:20;;;;;;;5.27;4.20;;;;;;;15.57;100.00;96887.78;4968161;28;20205;-66
2022/07/27 01:03:49;;;;;;;4.73;4.43;;;;;;;15.52;100.00;96892.97;4984213;28;20353;-66
2022/07/27 01:06:18;;;;;;;4.83;4.33;;;;;;;15.44;100.00;96877.25;4994682;28;20240;-67
2022/07/27 01:09:55;;;;;;;4.17;3.93;;;;;;;15.43;100.00;96881.78;4998503;28;20213;-68
2022/07/27 01:11:45;;;;;;;5.00;3.70;;;;;;;15.36;100.00;96889.03;4981312;28;20199;-67
2022/07/27 01:14:16;;;;;;;5.07;4.67;;;;;;;15.36;100.00;96885.56;4993122;28;20286;-66
2022/07/27 01:16:45;;;;;;;5.17;4.40;;;;;;;15.32;100.00;96890.53;4997337;28;20208;-70
2022/07/27 01:19:14;;;;;;;5.63;3.93;;;;;;;15.28;100.00;96892.00;4945145;28;20300;-67
2022/07/27 01:21:44;;;;;;;4.70;4.40;;;;;;;15.26;100.00;96891.41;4993666;28;20209;-68
2022/07/27 01:24:13;;;;;;;4.40;4.10;;;;;;;15.27;100.00;96895.72;4995847;28;20719;-66
2022/07/27 01:26:41;;;;;;;4.70;4.20;;;;;;;15.21;100.00;96889.41;4971611;28;20547;-68
2022/07/27 01:29:09;;;;;;;4.40;4.10;;;;;;;15.16;100.00;96897.25;5001234;28;20205;-67
2022/07/27 01:31:38;;;;;;;4.87;4.50;;;;;;;15.05;100.00;96904.94;4995403;28;20470;-68
2022/07/27 01:34:06;;;;;;;4.73;4.37;;;;;;;15.01;100.00;96906.44;4948915;28;20379;-66
2022/07/27 01:36:36;;;;;;;5.63;4.90;;;;;;;14.93;100.00;96896.00;4993545;28;20212;-69
2022/07/27 01:39:05;;;;;;;4.50;4.13;;;;;;;14.90;100.00;96891.94;4999968;28;20201;-68
2022/07/27 01:41:34;;;;;;;4.60;3.90;;;;;;;15.03;100.00;96904.34;4969214;28;20209;-68
2022/07/27 01:44:02;;;;;;;4.70;4.40;;;;;;;15.13;100.00;96903.81;4966547;28;20243;-67
2022/07/27 01:46:30;;;;;;;4.57;4.17;;;;;;;15.06;100.00;96908.41;4998619;28;20263;-68
2022/07/27 01:48:59;;;;;;;4.63;4.30;;;;;;;14.78;100.00;96915.03;4954579;28;20212;-67
2022/07/27 01:51:28;;;;;;;5.17;4.77;;;;;;;14.71;100.00;96912.41;4995012;28;20501;-67
2022/07/27 01:53:56;;;;;;;5.00;4.60;;;;;;;14.73;100.00;96909.50;5006260;28;20803;-67
2022/07/27 01:56:26;;;;;;;4.80;4.40;;;;;;;14.72;100.00;96911.38;4973128;28;20985;-68
2022/07/27 01:58:55;;;;;;;4.90;4.43;;;;;;;14.72;100.00;96900.72;4997787;28;20212;-67
2022/07/27 02:01:23;;;;;;;4.60;4.20;;;;;;;14.60;100.00;96897.91;4997494;28;20208;-66
2022/07/27 02:03:52;;;;;;;4.60;3.77;;;;;;;14.47;100.00;96885.47;4949274;28;20613;-67
2022/07/27 02:06:20;;;;;;;4.77;4.40;;;;;;;14.53;100.00;96893.63;4995430;28;20215;-68
2022/07/27 02:08:48;;;;;;;4.53;4.13;;;;;;;14.40;100.00;96887.38;5001555;28;20201;-68
2022/07/27 02:14:16;;;;;;;4.40;4.10;;;;;;;14.38;100.00;96881.44;4972100;28;20229;-64
2022/07/27 02:16:48;;;;;;;4.83;4.43;;;;;;;14.49;100.00;96879.94;5004517;28;20247;-68
2022/07/27 02:19:17;;;;;;;4.60;4.30;;;;;;;14.43;100.00;96875.47;4946119;28;20564;-68
2022/07/27 02:21:46;;;;;;;5.90;4.13;;;;;;;14.47;100.00;96874.00;4997009;28;20219;-66
2022/07/27 02:24:14;;;;;;;4.60;4.30;;;;;;;14.54;100.00;96866.78;4997776;28;20274;-68
2022/07/27 02:26:43;;;;;;;3.90;3.60;;;;;;;14.58;100.00;96875.13;4996690;28;20201;-66
2022/07/27 02:29:16;;;;;;;4.67;3.67;;;;;;;14.60;100.00;96867.78;4944804;28;20219;-69
2022/07/27 02:31:45;;;;;;;4.17;3.70;;;;;;;14.59;100.00;96876.81;4990807;28;21097;-66
2022/07/27 02:34:13;;;;;;;3.80;3.57;;;;;;;14.65;100.00;96865.25;4948565;28;20400;-69
2022/07/27 02:36:44;;;;;;;4.07;3.33;;;;;;;14.60;100.00;96873.91;4963183;28;20883;-64
2022/07/27 02:39:12;;;;;;;4.93;4.10;;;;;;;14.54;100.00;96869.44;4932858;28;20213;-68
2022/07/27 02:41:46;;;;;;;3.87;3.57;;;;;;;14.39;100.00;96868.94;4995284;28;20268;-65
2022/07/27 02:44:16;;;;;;;3.80;3.60;;;;;;;14.18;100.00;96861.06;4975638;28;20236;-67
2022/07/27 02:46:47;;;;;;;4.03;3.83;;;;;;;14.25;100.00;96865.56;4984853;28;20337;-66
2022/07/27 02:49:18;;;;;;;4.03;3.80;;;;;;;14.36;100.00;96870.19;5003340;28;21014;-67
2022/07/27 02:51:50;;;;;;;4.00;3.80;;;;;;;14.19;100.00;96862.69;4976318;28;20251;-64
2022/07/27 02:54:18;;;;;;;4.50;4.10;;;;;;;14.25;100.00;96861.03;4949460;28;20227;-66
2022/07/27 02:56:48;;;;;;;3.50;3.30;;;;;;;14.29;100.00;96859.56;4996272;28;20357;-66
2022/07/27 02:59:17;;;;;;;3.63;3.40;;;;;;;14.35;100.00;96863.22;4974375;28;20744;-65
2022/07/27 03:01:46;;;;;;;3.60;3.40;;;;;;;14.26;100.00;96857.34;4995422;28;20494;-67
2022/07/27 03:04:14;;;;;;;4.00;3.70;;;;;;;14.23;100.00;96862.31;4995337;28;20232;-65
2022/07/27 03:06:43;;;;;;;4.23;3.93;;;;;;;14.20;100.00;96866.19;4972796;28;20445;-67
2022/07/27 03:09:12;;;;;;;4.10;3.90;;;;;;;14.20;100.00;96863.53;4951553;28;20228;-69
2022/07/27 03:11:41;;;;;;;4.37;4.00;;;;;;;14.20;100.00;96868.84;4998396;28;20493;-65
2022/07/27 03:14:10;;;;;;;4.83;4.53;;;;;;;14.18;100.00;96866.41;5000635;28;20224;-65
2022/07/27 03:16:38;;;;;;;4.70;4.40;;;;;;;14.16;100.00;96867.66;4980249;28;20236;-67
2022/07/27 03:19:06;;;;;;;4.17;3.97;;;;;;;14.26;100.00;96869.84;5007836;28;20299;-68
2022/07/27 03:21:35;;;;;;;5.70;4.40;;;;;;;14.09;100.00;96878.34;4996184;28;20274;-68
2022/07/27 03:24:03;;;;;;;3.80;3.50;;;;;;;14.07;100.00;96880.41;4971435;28;20335;-68
2022/07/27 03:26:32;;;;;;;4.37;4.07;;;;;;;14.04;100.00;96880.84;4912123;28;20299;-69
2022/07/27 03:29:00;;;;;;;4.30;4.00;;;;;;;13.65;100.00;96875.50;4996934;28;20502;-67
2022/07/27 03:31:29;;;;;;;4.00;3.80;;;;;;;13.89;100.00;96887.28;4975602;28;20212;-65
2022/07/27 03:33:57;;;;;;;4.60;3.70;;;;;;;13.98;100.00;96879.84;4965767;28;20232;-69
2022/07/27 03:36:25;;;;;;;5.27;4.10;;;;;;;13.95;100.00;96868.81;4997874;28;20299;-68
2022/07/27 03:38:53;;;;;;;5.13;4.10;;;;;;;13.71;100.00;96879.16;4969498;28;20486;-68
2022/07/27 03:41:21;;;;;;;6.77;4.13;;;;;;;13.72;100.00;96878.94;4953137;28;20845;-68
2022/07/27 03:43:49;;;;;;;4.73;4.43;;;;;;;13.73;100.00;96882.41;4992045;28;20319;-67
2022/07/27 03:46:17;;;;;;;6.47;4.17;;;;;;;13.74;100.00;96886.72;4975308;28;20324;-68
2022/07/27 03:48:47;;;;;;;5.50;4.17;;;;;;;13.56;100.00;96892.72;4969315;28;20679;-66
2022/07/27 03:51:15;;;;;;;4.27;3.97;;;;;;;13.70;100.00;96899.66;4999326;28;20204;-67
2022/07/27 03:53:43;;;;;;;4.30;4.00;;;;;;;13.92;100.00;96901.19;4988907;28;20792;-64
2022/07/27 03:56:11;;;;;;;5.77;3.57;;;;;;;14.03;100.00;96897.84;4943421;28;20219;-66
2022/07/27 03:58:40;;;;;;;4.40;4.03;;;;;;;14.05;100.00;96882.47;4967805;28;20687;-66
2022/07/27 04:01:08;;;;;;;5.30;4.87;;;;;;;14.17;100.00;96879.94;4997881;28;20402;-68
2022/07/27 04:03:36;;;;;;;4.60;4.30;;;;;;;14.16;100.00;96873.78;4979473;28;20228;-66
2022/07/27 04:06:12;;;;;;;4.40;4.10;;;;;;;14.06;100.00;96876.13;4999269;28;20212;-68
2022/07/27 04:08:40;;;;;;;5.43;4.87;;;;;;;14.06;100.00;96873.44;4993778;28;20295;-66
2022/07/27 04:11:08;;;;;;;4.70;4.40;;;;;;;14.22;100.00;96874.00;4921698;28;20847;-67
2022/07/27 04:13:38;;;;;;;4.60;4.20;;;;;;;14.40;100.00;96874.06;4994350;28;20736;-65
2022/07/27 04:16:08;;;;;;;4.50;4.10;;;;;;;14.41;100.00;96873.03;4996576;28;20449;-67
2022/07/27 04:18:36;;;;;;;6.93;4.33;;;;;;;14.52;100.00;96876.84;4979120;28;20327;-67
2022/07/27 04:21:05;;;;;;;4.93;4.53;;;;;;;14.54;100.00;96869.44;4998010;28;20297;-68
2022/07/27 04:23:34;;;;;;;4.20;3.90;;;;;;;14.64;100.00;96873.47;4998460;28;20256;-67
2022/07/27 04:26:05;;;;;;;5.37;4.63;;;;;;;14.68;100.00;96864.81;4972993;28;20952;-68
2022/07/27 04:28:34;;;;;;;4.20;4.00;;;;;;;14.72;100.00;96862.56;4944122;28;20659;-67
2022/07/27 04:31:02;;;;;;;4.63;4.33;;;;;;;14.88;100.00;96867.34;4995497;28;20878;-65
2022/07/27 04:33:31;;;;;;;4.40;4.10;;;;;;;14.98;100.00;96869.53;4975484;28;20539;-66
2022/07/27 04:35:59;;;;;;;4.40;4.10;;;;;;;15.09;100.00;96865.28;4997269;28;20650;-68
2022/07/27 04:38:27;;;;;;;4.93;4.57;;;;;;;15.00;100.00;96866.63;5001219;28;20287;-68
2022/07/27 04:40:57;;;;;;;5.23;4.80;;;;;;;15.09;100.00;96864.50;4968610;28;20215;-68
2022/07/27 04:43:25;;;;;;;5.10;4.30;;;;;;;15.10;100.00;96868.78;4950049;28;20311;-68
2022/07/27 04:45:56;;;;;;;6.70;4.07;;;;;;;15.12;100.00;96867.50;4936971;28;20228;-66
2022/07/27 04:48:24;;;;;;;4.10;3.90;;;;;;;15.15;100.00;96867.09;4995395;28;20387;-66
2022/07/27 04:50:53;;;;;;;4.67;4.27;;;;;;;15.07;100.00;96862.03;4996606;28;20228;-64
2022/07/27 04:53:21;;;;;;;4.83;4.53;;;;;;;15.07;100.00;96859.34;4975985;28;20532;-68
2022/07/27 04:55:49;;;;;;;4.50;4.20;;;;;;;15.11;100.00;96857.06;5001817;28;20765;-66
2022/07/27 04:58:19;;;;;;;4.33;4.13;;;;;;;15.16;100.00;96860.72;4969595;28;20362;-66
2022/07/27 05:00:47;;;;;;;4.90;4.50;;;;;;;15.25;100.00;96863.09;5001614;28;20236;-69
2022/07/27 05:03:15;;;;;;;4.50;4.20;;;;;;;15.22;100.00;96877.69;4946747;28;20433;-68
2022/07/27 05:05:45;;;;;;;7.83;5.33;;;;;;;15.31;100.00;96879.00;4995073;28;20583;-67
2022/07/27 05:08:18;;;;;;;5.17;4.73;;;;;;;15.26;100.00;96886.88;4994383;28;20204;-68
2022/07/27 05:10:46;;;;;;;5.83;4.57;;;;;;;15.35;100.00;96898.09;4997116;28;20295;-68
2022/07/27 05:13:14;;;;;;;4.70;4.40;;;;;;;15.31;100.00;96902.25;4964762;28;20779;-68
2022/07/27 05:15:43;;;;;;;4.97;4.57;;;;;;;15.38;100.00;96910.19;4997683;28;20254;-66
2022/07/27 05:18:22;;;;;;;5.70;5.07;;;;;;;15.46;100.00;96917.91;4942749;28;20446;-68
2022/07/27 05:20:50;;;;;;;5.23;4.43;;;;;;;15.67;100.00;96911.28;4995842;28;20752;-65
2022/07/27 05:23:18;;;;;;;5.37;4.83;;;;;;;15.68;100.00;96915.59;4992966;28;20252;-67
2022/07/27 05:25:46;;;;;;;6.33;4.67;;;;;;;15.58;100.00;96916.09;5002505;28;20326;-67
2022/07/27 05:28:14;;;;;;;5.80;4.40;;;;;;;15.72;100.00;96919.44;4974622;28;20369;-68
2022/07/27 05:30:44;;;;;;;5.33;4.83;;;;;;;15.72;100.00;96921.28;5002724;28;20291;-67
2022/07/27 05:33:12;;;;;;;5.63;5.23;;;;;;;15.62;100.00;96919.97;4943775;28;21610;-67
2022/07/27 05:35:41;;;;;;;5.67;5.27;;;;;;;15.69;100.00;96927.91;5002258;28;20368;-69
2022/07/27 05:38:09;;;;;;;5.00;4.60;;;;;;;15.72;100.00;96921.28;4998314;28;20315;-65
2022/07/27 05:40:37;;;;;;;5.30;4.90;;;;;;;15.76;100.00;96930.50;4998413;28;20228;-67
2022/07/27 05:43:06;;;;;;;5.50;5.10;;;;;;;15.89;100.00;96941.06;4974217;28;20235;-66
2022/07/27 05:45:34;;;;;;;5.50;5.00;;;;;;;15.97;100.00;96945.28;5002259;28;20235;-67
2022/07/27 05:48:04;;;;;;;4.97;4.57;;;;;;;16.05;100.00;96944.16;4963082;28;20800;-64
2022/07/27 05:50:32;;;;;;;5.70;5.20;;;;;;;16.18;100.00;96956.53;5006941;28;20661;-68
2022/07/27 05:53:01;;;;;;;5.13;4.83;;;;;;;16.46;100.00;96952.47;5002597;28;20323;-66
2022/07/27 05:55:29;;;;;;;4.87;4.40;;;;;;;16.71;100.00;96949.63;5002820;28;20629;-68
2022/07/27 05:57:57;;;;;;;5.27;4.77;;;;;;;16.71;100.00;96940.78;4992164;28;20519;-63
2022/07/27 06:00:26;;;;;;;5.10;4.70;;;;;;;16.84;100.00;96953.13;4993161;28;20342;-67
2022/07/27 06:02:54;;;;;;;4.77;4.47;;;;;;;16.68;100.00;96947.41;4983762;28;20814;-64
2022/07/27 06:05:25;;;;;;;5.17;4.83;;;;;;;16.92;100.00;96953.63;4971595;28;20256;-68
2022/07/27 06:07:58;;;;;;;6.17;4.67;;;;;;;17.25;100.00;96964.88;4998466;28;20304;-66
2022/07/27 06:10:27;;;;;;;5.10;4.70;;;;;;;17.27;100.00;96965.44;4999207;28;20391;-68
2022/07/27 06:12:56;;;;;;;5.47;4.93;;;;;;;17.22;100.00;96965.31;4992762;28;20291;-62
2022/07/27 06:15:24;;;;;;;5.50;4.50;;;;;;;17.51;100.00;96957.41;4990074;28;20430;-66
2022/07/27 06:17:52;;;;;;;5.20;4.70;;;;;;;17.92;100.00;96955.56;5006409;28;20274;-66
2022/07/27 06:20:22;;;;;;;5.00;4.50;;;;;;;18.10;100.00;96953.00;4946156;28;20412;-68
2022/07/27 06:22:53;;;;;;;5.10;4.67;;;;;;;18.03;100.00;96964.69;4999231;28;20310;-65
2022/07/27 06:25:23;;;;;;;5.30;5.00;;;;;;;18.00;100.00;96964.31;4996877;28;20252;-66
2022/07/27 06:28:03;;;;;;;4.40;4.00;;;;;;;17.83;100.00;96954.31;4980155;28;20740;-64
2022/07/27 06:30:32;;;;;;;7.20;4.90;;;;;;;17.75;100.00;96958.16;4998828;28;20212;-67
2022/07/27 06:33:03;;;;;;;4.90;4.50;;;;;;;17.75;100.00;96957.38;4997434;28;20244;-68
2022/07/27 06:35:31;;;;;;;5.27;4.77;;;;;;;17.91;100.00;96956.63;4946692;28;20398;-68
2022/07/27 06:38:02;;;;;;;4.63;4.20;;;;;;;18.24;100.00;96954.38;4999019;28;20711;-66
2022/07/27 06:40:31;;;;;;;4.70;4.23;;;;;;;18.45;100.00;96949.38;5001442;28;20236;-65
2022/07/27 06:42:59;;;;;;;5.10;4.77;;;;;;;18.48;100.00;96949.72;4985221;28;20225;-65
2022/07/27 06:45:28;;;;;;;4.60;4.30;;;;;;;18.91;100.00;96958.22;4991857;28;20347;-66
2022/07/27 06:47:56;;;;;;;5.87;5.37;;;;;;;19.03;100.00;96954.69;4998561;28;20208;-66
2022/07/27 06:50:24;;;;;;;6.43;4.60;;;;;;;18.98;100.00;96957.28;4951607;28;21476;-68
2022/07/27 06:52:52;;;;;;;5.17;4.20;;;;;;;19.02;100.00;96956.53;4941733;28;20291;-68
2022/07/27 06:55:22;;;;;;;9.87;6.33;;;;;;;19.16;100.00;96958.91;4994300;28;20299;-66
2022/07/27 06:57:50;;;;;;;4.40;4.10;;;;;;;19.24;100.00;96955.81;5000028;28;20331;-67
2022/07/27 07:00:18;;;;;;;4.93;4.50;;;;;;;19.36;100.00;96953.84;4973135;28;20209;-64
2022/07/27 07:02:53;;;;;;;4.43;4.13;;;;;;;19.37;100.00;96950.09;5002278;28;20255;-66
2022/07/27 07:05:22;;;;;;;4.40;4.00;;;;;;;19.41;100.00;96950.41;4970013;28;20750;-66
2022/07/27 07:07:51;;;;;;;4.77;4.00;;;;;;;19.46;100.00;96949.66;4947072;28;20220;-68
2022/07/27 07:10:20;;;;;;;5.60;4.60;;;;;;;19.44;100.00;96941.03;5000789;28;20452;-64
2022/07/27 07:12:54;;;;;;;5.47;5.00;;;;;;;19.65;100.00;96942.13;4998295;28;21048;-69
2022/07/27 07:15:23;;;;;;;5.60;4.70;;;;;;;19.89;100.00;96937.34;4995064;28;20201;-66
2022/07/27 07:17:52;;;;;;;4.87;3.63;;;;;;;20.19;100.00;96936.09;4998808;28;20448;-69
2022/07/27 07:20:20;;;;;;;4.70;4.23;;;;;;;20.38;100.00;96936.56;4973758;28;20303;-66
2022/07/27 07:22:48;;;;;;;5.03;4.63;;;;;;;20.56;100.00;96926.53;4946715;28;20475;-69
2022/07/27 07:25:16;;;;;;;4.87;4.43;;;;;;;20.62;100.00;96928.19;4999902;28;20241;-67
2022/07/27 07:27:44;;;;;;;11.23;5.97;;;;;;;20.68;100.00;96934.44;5000038;28;20485;-69
2022/07/27 07:30:14;;;;;;;5.90;4.60;;;;;;;20.93;100.00;96928.50;4999833;28;20769;-67
2022/07/27 07:32:42;;;;;;;7.73;5.07;;;;;;;21.11;100.00;96929.16;5000146;28;20397;-68
2022/07/27 07:35:11;;;;;;;6.07;5.57;;;;;;;21.46;100.00;96925.06;4998977;28;20696;-66
2022/07/27 07:37:39;;;;;;;6.47;5.87;;;;;;;21.32;100.00;96919.31;4981483;28;20702;-68
2022/07/27 07:40:09;;;;;;;6.73;6.03;;;;;;;21.28;100.00;96922.81;4947968;28;21468;-67
2022/07/27 07:42:59;;;;;;;6.67;5.83;;;;;;;21.09;100.00;96915.13;4998635;28;20225;-66
2022/07/27 07:45:30;;;;;;;6.67;5.87;;;;;;;21.05;100.00;96912.16;4997448;28;20606;-67
2022/07/27 07:47:58;;;;;;;9.53;5.87;;;;;;;21.15;100.00;96911.38;4999235;28;20888;-69
2022/07/27 07:50:27;;;;;;;7.60;5.90;;;;;;;21.02;99.97;96906.47;4998756;28;20227;-69
2022/07/27 07:52:56;;;;;;;7.47;6.80;;;;;;;21.07;99.61;96915.41;4973209;28;20306;-69
2022/07/27 07:55:26;;;;;;;7.77;6.97;;;;;;;21.19;100.00;96911.69;4939560;28;20646;-66
2022/07/27 07:57:55;;;;;;;8.10;6.20;;;;;;;21.15;100.00;96914.09;4995210;28;20262;-68
2022/07/27 08:00:24;;;;;;;6.90;6.40;;;;;;;21.25;100.00;96921.44;4996994;28;20208;-69
2022/07/27 08:02:56;;;;;;;10.43;6.50;;;;;;;21.07;100.00;96926.16;4993332;28;20583;-67
2022/07/27 08:05:25;;;;;;;7.93;7.27;;;;;;;21.23;100.00;96921.72;4998139;28;20298;-70
2022/07/27 08:07:53;;;;;;;7.70;6.57;;;;;;;21.54;100.00;96919.16;4981162;28;20236;-67
2022/07/27 08:10:22;;;;;;;16.83;7.13;;;;;;;21.52;99.57;96918.63;4960206;28;20213;-66
2022/07/27 08:12:52;;;;;;;7.50;6.40;;;;;;;21.27;100.00;96921.19;5000100;28;20267;-66
2022/07/27 08:15:22;;;;;;;9.47;6.07;;;;;;;21.51;99.04;96914.31;5003415;28;20209;-67
2022/07/27 08:18:04;;;;;;;7.70;6.90;;;;;;;21.84;97.44;96911.53;4995408;28;20288;-66
2022/07/27 08:20:33;;;;;;;6.93;6.33;;;;;;;22.11;96.75;96913.22;5005960;28;20279;-69
2022/07/27 08:23:02;;;;;;;7.17;6.63;;;;;;;22.37;89.59;96914.13;4983570;28;20285;-66
2022/07/27 08:25:30;;;;;;;7.47;6.87;;;;;;;22.37;87.75;96919.53;4958589;28;20223;-67
2022/07/27 08:27:59;;;;;;;8.77;6.27;;;;;;;22.62;85.81;96909.84;4998895;28;21964;-69
2022/07/27 08:30:30;;;;;;;6.73;6.03;;;;;;;22.93;84.55;96915.25;4998198;28;20685;-68
2022/07/27 08:33:01;;;;;;;8.80;6.37;;;;;;;22.94;83.92;96921.50;4994039;28;20753;-66
2022/07/27 08:35:31;;;;;;;7.23;6.00;;;;;;;23.08;85.72;96919.03;4998414;28;20280;-67
2022/07/27 08:38:00;;;;;;;5.33;4.97;;;;;;;23.09;68.81;96912.53;4980750;28;20514;-67
2022/07/27 08:40:29;;;;;;;5.33;4.90;;;;;;;23.59;65.72;96910.03;4998495;28;20298;-68
2022/07/27 08:43:15;;;;;;;7.47;5.70;;;;;;;24.17;61.58;96914.16;4985526;28;20228;-68
2022/07/27 08:45:55;;;;;;;10.87;5.00;;;;;;;24.64;56.81;96908.44;4993152;28;20220;-65
2022/07/27 08:48:24;;;;;;;5.47;4.97;;;;;;;25.48;52.01;96912.09;4994374;28;20240;-67
2022/07/27 08:50:54;;;;;;;5.87;5.37;;;;;;;25.79;50.36;96917.19;4995788;28;20255;-65
2022/07/27 08:53:23;;;;;;;5.80;5.23;;;;;;;25.58;49.62;96912.00;5001895;28;20248;-67
2022/07/27 08:55:52;;;;;;;5.80;5.13;;;;;;;25.24;50.46;96915.56;4943457;28;20282;-66
2022/07/27 08:58:20;;;;;;;5.87;5.37;;;;;;;24.75;53.40;96912.72;5003898;28;20239;-69
2022/07/27 09:00:49;;;;;;;5.63;5.13;;;;;;;24.64;54.18;96905.75;4958066;28;20302;-69
2022/07/27 09:03:20;;;;;;;7.73;6.40;;;;;;;24.98;58.94;96910.38;4985840;28;20330;-68
2022/07/27 09:05:51;;;;;;;5.73;5.30;;;;;;;25.46;52.45;96908.84;5003382;28;20289;-68
2022/07/27 09:08:22;;;;;;;7.83;5.67;;;;;;;25.01;54.60;96915.22;4974888;28;20232;-68
2022/07/27 09:10:53;;;;;;;6.80;5.20;;;;;;;25.27;56.69;96906.88;5006584;28;20205;-68
2022/07/27 09:13:24;;;;;;;9.23;5.87;;;;;;;25.84;53.40;96911.69;4986600;28;21286;-67
2022/07/27 09:15:54;;;;;;;5.80;5.30;;;;;;;25.53;48.31;96912.03;4965247;28;20323;-67
2022/07/27 09:18:42;;;;;;;4.90;4.40;;;;;;;25.15;48.75;96904.53;5003028;28;20346;-69
2022/07/27 09:21:13;;;;;;;6.33;5.10;;;;;;;25.80;48.44;96905.22;5000564;28;20263;-66
2022/07/27 09:23:46;;;;;;;5.97;5.23;;;;;;;26.12;50.51;96901.81;4989030;28;20232;-65
2022/07/27 09:26:18;;;;;;;6.87;6.33;;;;;;;25.81;51.77;96899.53;5000404;28;20208;-67
2022/07/27 09:29:01;;;;;;;7.33;6.77;;;;;;;25.48;54.90;96906.66;5004758;28;20261;-66
2022/07/27 09:31:30;;;;;;;6.57;6.17;;;;;;;25.08;55.49;96904.88;4955491;28;20530;-67
2022/07/27 09:34:00;;;;;;;6.97;6.47;;;;;;;25.11;58.05;96909.72;5002423;28;20240;-66
2022/07/27 09:36:29;;;;;;;8.93;7.23;;;;;;;24.93;58.72;96911.22;5000490;28;21215;-68
2022/07/27 09:39:02;;;;;;;8.23;6.53;;;;;;;24.57;60.65;96904.16;4992547;28;20208;-66
2022/07/27 09:41:41;;;;;;;6.70;6.17;;;;;;;24.56;60.55;96909.84;5004405;28;20301;-68
2022/07/27 09:44:10;;;;;;;6.53;5.93;;;;;;;24.39;63.28;96900.22;5002115;28;20640;-66
2022/07/27 09:46:58;;;;;;;5.77;5.20;;;;;;;24.28;69.16;96904.09;4947575;28;20237;-67
2022/07/27 09:49:30;;;;;;;5.97;5.47;;;;;;;24.42;66.05;96902.38;5000833;28;20232;-69
2022/07/27 09:51:59;;;;;;;5.80;5.30;;;;;;;24.25;64.34;96901.94;5003614;28;20215;-67
2022/07/27 09:54:44;;;;;;;7.17;4.87;;;;;;;24.14;64.50;96899.28;4989303;28;20371;-69
2022/07/27 09:57:12;;;;;;;4.87;4.57;;;;;;;24.01;61.44;96904.50;4997286;28;20201;-68
2022/07/27 09:59:40;;;;;;;6.27;5.67;;;;;;;24.04;62.44;96907.47;5009481;28;20211;-67
2022/07/27 10:02:08;;;;;;;5.40;5.00;;;;;;;23.88;71.15;96903.19;4958287;28;20300;-64
2022/07/27 10:04:37;;;;;;;5.40;5.00;;;;;;;24.32;62.30;96898.91;4999271;28;20629;-68
2022/07/27 10:07:05;;;;;;;5.57;5.17;;;;;;;24.70;61.26;96910.03;4995459;28;20227;-66
2022/07/27 10:09:39;;;;;;;4.63;4.10;;;;;;;24.57;55.42;96906.06;5004062;28;20291;-68
2022/07/27 10:12:09;;;;;;;5.70;5.20;;;;;;;25.19;57.99;96905.56;5001693;28;20744;-67
2022/07/27 10:14:38;;;;;;;5.53;4.70;;;;;;;25.49;51.08;96911.00;5004761;28;20298;-68
2022/07/27 10:17:06;;;;;;;3.90;3.60;;;;;;;25.76;49.23;96906.91;4979389;28;20227;-66
2022/07/27 10:19:43;;;;;;;2.70;2.50;;;;;;;25.39;44.46;96907.28;4996434;28;20220;-68
2022/07/27 10:22:11;;;;;;;2.97;2.77;;;;;;;25.53;43.85;96906.63;5002616;28;20204;-67
2022/07/27 10:24:39;;;;;;;2.80;2.60;;;;;;;25.99;43.23;96900.66;4987992;28;20681;-68
2022/07/27 10:27:26;;;;;;;2.67;2.50;;;;;;;26.00;42.90;96898.72;4999537;28;20336;-66
2022/07/27 10:29:56;;;;;;;3.10;2.90;;;;;;;25.78;42.60;96910.13;5001061;28;20208;-66
2022/07/27 10:32:25;;;;;;;3.83;2.67;;;;;;;25.07;43.96;96911.38;4957348;28;20999;-67
2022/07/27 10:34:54;;;;;;;2.50;2.40;;;;;;;24.65;45.12;96910.91;4996603;28;20237;-68
2022/07/27 10:37:26;;;;;;;2.80;2.70;;;;;;;24.26;48.09;96908.97;4998137;28;20283;-66
2022/07/27 10:42:41;;;;;;;3.40;3.10;;;;;;;24.61;47.94;96904.41;5004428;28;20212;-68
2022/07/27 10:45:11;;;;;;;2.83;2.73;;;;;;;24.83;48.21;96912.13;5003180;28;20739;-66
2022/07/27 10:47:43;;;;;;;4.80;3.17;;;;;;;25.12;47.15;96908.63;5005675;28;20308;-68
2022/07/27 10:50:35;;;;;;;3.23;3.03;;;;;;;24.97;44.27;96909.56;4961045;28;21346;-67
2022/07/27 10:53:06;;;;;;;2.80;2.40;;;;;;;24.56;43.55;96905.25;5003139;28;20321;-67
2022/07/27 10:55:48;;;;;;;3.07;2.77;;;;;;;24.19;43.68;96906.56;4988827;28;20573;-68
2022/07/27 10:58:46;;;;;;;3.40;2.73;;;;;;;24.66;47.53;96903.56;5001659;28;20200;-67
2022/07/27 11:01:23;;;;;;;2.80;2.60;;;;;;;25.18;43.12;96895.00;4999381;28;20209;-66
2022/07/27 11:03:52;;;;;;;3.07;2.80;;;;;;;25.69;44.10;96891.78;4963689;28;21683;-67
2022/07/27 11:06:31;;;;;;;2.40;2.20;;;;;;;26.36;40.87;96883.91;4995928;28;20602;-67
2022/07/27 11:09:14;;;;;;;3.87;2.17;;;;;;;26.28;39.31;96886.16;4945476;28;20334;-66
2022/07/27 11:12:03;;;;;;;2.33;2.23;;;;;;;26.18;36.09;96885.53;5000345;28;20215;-68
2022/07/27 11:14:43;;;;;;;2.20;1.97;;;;;;;26.67;37.86;96886.13;4988388;28;20312;-67
2022/07/27 11:17:12;;;;;;;2.17;2.07;;;;;;;26.84;36.92;96886.44;4988658;28;20758;-67
2022/07/27 11:20:02;;;;;;;2.57;2.30;;;;;;;27.00;36.86;96886.16;4999201;28;20201;-67
2022/07/27 11:22:32;;;;;;;2.57;2.47;;;;;;;26.37;38.11;96896.38;4957311;28;20298;-65
2022/07/27 11:25:20;;;;;;;2.50;2.40;;;;;;;25.92;39.64;96889.31;4998856;28;20301;-67
2022/07/27 11:27:49;;;;;;;3.60;3.30;;;;;;;25.42;42.20;96901.28;5001232;28;20224;-68
2022/07/27 11:30:28;;;;;;;4.33;3.17;;;;;;;24.92;45.26;96896.06;4987397;28;20331;-66
2022/07/27 11:32:56;;;;;;;2.97;2.77;;;;;;;24.49;46.48;96904.78;5001626;28;20236;-67
2022/07/27 11:35:24;;;;;;;3.00;2.80;;;;;;;24.09;47.07;96903.94;4995580;28;20283;-65
2022/07/27 11:38:00;;;;;;;2.97;2.80;;;;;;;23.92;47.93;96906.97;4987087;28;20236;-67
2022/07/27 11:40:29;;;;;;;2.97;2.67;;;;;;;23.73;50.77;96904.06;4962121;28;20213;-65
2022/07/27 11:43:38;;;;;;;4.43;3.10;;;;;;;24.02;48.11;96912.34;4998699;28;20960;-67
2022/07/27 11:46:19;;;;;;;3.20;2.90;;;;;;;24.39;47.37;96902.13;4988879;28;20270;-67
2022/07/27 11:48:49;;;;;;;3.33;3.13;;;;;;;24.62;50.33;96908.72;5002886;28;20220;-65